Main page
METAR-TAF:

METAR-TAF

Airports :

Sheremetyevo International Airport

Moscow-Sheremetyevo, Russia

latitude: 55-58N, longitude: 037-25E, elevation: 190 m

Current weather observation

The report was made 22 minutes ago, at 21:00 UTC
Wind 4 kt from the West
Temperature 13°C
Humidity 88%
Pressure 1016 hPa
Visibility 10 km or more
no clouds below 1500 m and no cumulonimbus

METAR: UUEE 202100Z 26002MPS CAVOK 13/11 Q1016 R24L/CLRD62 NOSIG

Time: 00:22 (21:22 UTC)

Forecast

The report was made 1 hour and 21 minutes ago, at 20:01 UTC
Forecast valid from 20 at 21 UTC to 21 at 21 UTC
Wind 4 kt from the West/Southwest
Visibility 10 km or more
Scattered clouds at a height of 3000 ft
Temporary
from 20 at 22 UTC to 21 at 05 UTC
Visibility: 3100 m
Few clouds at a height of 500 ft
mist
Temporary
from 21 at 06 UTC to 21 at 15 UTC
Wind 14 kt from the South/Southwest

TAF: UUEE 202001Z 2021/2121 25002MPS 9999 SCT030 TX23/2112Z TN11/2103Z TEMPO 2022/2105 3100 BR FEW005 TEMPO 2106/2115 21007MPS

Weather observations and forecasts of more than 4000 airports (METAR and TAF reports).

The available stations are represented by yellow and red dots on the map.

Hover mouse over dot to see the name of the station.

Then click to see weather observations and forecasts.

To change the map : click on the green buttons with a black cross to zoom in, on the green button with a dash to zoom out, or on the green arrows for adjacent maps.


METAR-TAF: